Time;durP1;ratioP1;P1;durP2;ratioP2;P2;SDS_P1;SDS_P2;PMS_P1;PMS_P2;Temp;Humidity;BMP_temperature;BMP_pressure;BME280_temperature;BME280_humidity;BME280_pressure;Samples;Min_cycle;Max_cycle;Signal;HPM_P1;HPM_P2
2023/06/13 00:00:10;;;;;;;163.75;156.65;;;;;;;32.79;21.24;101234.06;4993453;28;20042;-71
2023/06/13 00:02:39;;;;;;;157.93;150.90;;;;;;;32.74;21.13;101234.41;4994226;28;20057;-71
2023/06/13 00:05:06;;;;;;;158.65;151.82;;;;;;;32.71;21.35;101227.59;4993858;28;20038;-71
2023/06/13 00:07:32;;;;;;;160.13;153.23;;;;;;;32.68;21.41;101230.31;4994167;28;20081;-71
2023/06/13 00:09:58;;;;;;;155.95;148.95;;;;;;;32.64;21.50;101233.09;5008406;28;20108;-71
2023/06/13 00:12:25;;;;;;;157.02;149.77;;;;;;;32.60;21.58;101226.63;4994060;28;20120;-71
2023/06/13 00:14:51;;;;;;;155.15;148.35;;;;;;;32.58;21.41;101233.81;5008932;28;20037;-71
2023/06/13 00:17:18;;;;;;;156.77;150.10;;;;;;;32.54;21.44;101228.19;4976424;28;20125;-71
2023/06/13 00:19:45;;;;;;;153.82;147.27;;;;;;;32.51;21.72;101231.75;4993886;28;20026;-71
2023/06/13 00:22:13;;;;;;;159.55;152.75;;;;;;;32.48;21.37;101232.47;4993241;28;20399;-71
2023/06/13 00:24:41;;;;;;;155.35;148.75;;;;;;;32.44;21.62;101223.25;4993856;28;20034;-71
2023/06/13 00:27:07;;;;;;;157.07;150.32;;;;;;;32.42;21.45;101225.59;4993230;28;20494;-71
2023/06/13 00:29:32;;;;;;;155.57;148.90;;;;;;;32.38;21.56;101221.94;4993509;28;20033;-71
2023/06/13 00:31:58;;;;;;;153.57;147.02;;;;;;;32.35;21.52;101226.31;4992769;28;20030;-71
2023/06/13 00:34:23;;;;;;;154.23;147.23;;;;;;;32.31;21.40;101217.09;4993969;28;20480;-70
2023/06/13 00:36:50;;;;;;;158.38;150.85;;;;;;;32.27;21.43;101217.03;4993153;28;20035;-71
2023/06/13 00:39:15;;;;;;;157.68;150.90;;;;;;;32.25;21.63;101218.59;4991750;28;20074;-71
2023/06/13 00:41:41;;;;;;;155.98;148.52;;;;;;;32.21;21.59;101212.97;4992860;28;20084;-70
2023/06/13 00:44:07;;;;;;;156.95;150.10;;;;;;;32.18;21.57;101216.53;4993129;28;20042;-70
2023/06/13 00:46:34;;;;;;;153.27;146.57;;;;;;;32.15;21.85;101216.47;4993340;28;20049;-71
2023/06/13 00:49:01;;;;;;;153.65;146.43;;;;;;;32.11;21.68;101217.25;4992895;28;20045;-71
2023/06/13 00:51:28;;;;;;;152.90;146.35;;;;;;;32.08;21.56;101215.22;4992687;28;20534;-71
2023/06/13 00:53:55;;;;;;;154.85;148.18;;;;;;;32.05;21.64;101212.34;4993114;28;20033;-71
2023/06/13 00:56:22;;;;;;;156.38;149.68;;;;;;;32.03;21.82;101217.50;4992630;28;20030;-70
2023/06/13 00:58:48;;;;;;;158.38;151.40;;;;;;;31.99;21.73;101216.66;4993115;28;20034;-70
2023/06/13 01:01:19;;;;;;;154.55;147.98;;;;;;;31.96;21.75;101214.63;4993099;28;20085;-71
2023/06/13 01:03:45;;;;;;;154.75;147.88;;;;;;;31.92;21.80;101217.34;4993055;28;20114;-70
2023/06/13 01:06:14;;;;;;;153.50;146.40;;;;;;;31.88;21.71;101220.09;4992305;28;20030;-71
2023/06/13 01:08:40;;;;;;;153.90;147.40;;;;;;;31.85;21.73;101209.66;4992851;28;20092;-70
2023/06/13 01:11:22;;;;;;;149.65;143.00;;;;;;;31.82;21.65;101213.19;4991988;28;20117;-70
2023/06/13 01:13:54;;;;;;;151.52;144.93;;;;;;;31.79;21.91;101215.94;4992768;28;20026;-70
2023/06/13 01:16:33;;;;;;;152.65;145.75;;;;;;;31.75;22.00;101210.28;4992703;28;20046;-70
2023/06/13 01:19:03;;;;;;;156.10;148.90;;;;;;;31.72;21.92;101213.03;4992216;28;20454;-71
2023/06/13 01:21:32;;;;;;;155.65;148.85;;;;;;;31.68;22.17;101207.41;4992636;28;20455;-71
2023/06/13 01:24:04;;;;;;;152.90;146.10;;;;;;;31.64;21.83;101215.72;4992445;28;20477;-71
2023/06/13 01:26:52;;;;;;;148.23;141.32;;;;;;;31.61;22.26;101216.50;4991262;28;20034;-71
2023/06/13 01:29:19;;;;;;;152.43;145.63;;;;;;;31.57;22.03;101215.63;4992119;28;20039;-71
2023/06/13 01:31:52;;;;;;;148.90;142.30;;;;;;;31.54;21.86;101212.78;4992966;28;20030;-71
2023/06/13 01:34:18;;;;;;;144.05;137.63;;;;;;;31.50;21.80;101209.13;4992344;28;20042;-71
2023/06/13 01:36:44;;;;;;;148.63;142.23;;;;;;;31.46;21.92;101209.88;4992305;28;20038;-69
2023/06/13 01:39:09;;;;;;;149.00;142.40;;;;;;;31.43;22.02;101210.63;4991833;28;20042;-70
2023/06/13 01:41:35;;;;;;;140.73;134.25;;;;;;;31.39;21.97;101204.16;4992521;28;20082;-70
2023/06/13 01:44:03;;;;;;;147.00;140.63;;;;;;;31.35;21.96;101203.28;4992428;28;20065;-71
2023/06/13 01:46:29;;;;;;;144.00;137.70;;;;;;;31.31;21.92;101199.63;4992243;28;20037;-70
2023/06/13 01:49:31;;;;;;;147.70;141.30;;;;;;;31.29;22.16;101195.59;5007767;28;20360;-70
2023/06/13 01:52:24;;;;;;;142.20;136.02;;;;;;;31.23;22.16;101204.28;4992257;28;20031;-70
2023/06/13 01:54:57;;;;;;;140.68;134.52;;;;;;;31.19;22.06;101194.22;4992370;28;20113;-70
2023/06/13 01:57:30;;;;;;;140.43;134.25;;;;;;;31.15;22.10;101190.59;4992387;28;20027;-70
2023/06/13 01:59:56;;;;;;;141.75;135.30;;;;;;;31.11;22.34;101196.09;4992263;28;20076;-70
2023/06/13 02:02:23;;;;;;;139.05;133.02;;;;;;;31.07;22.18;101191.63;4991750;28;20036;-70
2023/06/13 02:04:49;;;;;;;144.95;138.65;;;;;;;31.02;22.03;101193.56;4992543;28;20062;-70
2023/06/13 02:07:15;;;;;;;145.68;138.98;;;;;;;30.99;22.22;101199.88;4992034;28;20030;-70
2023/06/13 02:09:40;;;;;;;140.77;134.38;;;;;;;30.96;22.25;101191.44;4992170;28;20475;-70
2023/06/13 02:12:06;;;;;;;143.85;137.15;;;;;;;30.92;22.38;101196.97;4991636;28;20045;-70
2023/06/13 02:14:32;;;;;;;139.52;133.43;;;;;;;30.89;22.35;101205.25;4992155;28;20046;-70
2023/06/13 02:17:01;;;;;;;137.65;131.65;;;;;;;30.86;22.41;101203.22;5006644;28;20494;-70
2023/06/13 02:19:26;;;;;;;142.77;136.30;;;;;;;30.82;22.35;101205.97;4990717;28;20030;-70
2023/06/13 02:21:52;;;;;;;141.32;135.18;;;;;;;30.79;22.26;101203.84;4992094;28;20045;-70
2023/06/13 02:24:18;;;;;;;142.68;136.30;;;;;;;30.75;22.36;101200.22;5009461;28;20466;-70
2023/06/13 02:26:44;;;;;;;138.73;132.20;;;;;;;30.70;22.57;101201.31;4995560;28;20165;-70
2023/06/13 02:29:10;;;;;;;139.38;133.00;;;;;;;30.66;22.67;101200.44;4996084;28;20042;-70
2023/06/13 02:31:38;;;;;;;143.95;137.50;;;;;;;30.63;22.44;101196.41;4995747;28;20526;-70
2023/06/13 02:34:03;;;;;;;141.40;135.10;;;;;;;30.60;22.52;101197.13;4995562;28;20505;-70
2023/06/13 02:36:29;;;;;;;136.88;130.77;;;;;;;30.55;22.66;101200.22;4995576;28;20035;-71
2023/06/13 02:38:54;;;;;;;139.48;132.98;;;;;;;30.53;22.73;101210.94;4995567;28;20163;-70
2023/06/13 02:41:20;;;;;;;137.45;131.35;;;;;;;30.50;22.78;101208.09;5010014;28;20061;-71
2023/06/13 02:43:45;;;;;;;139.23;132.75;;;;;;;30.46;22.78;101208.00;4995696;28;20034;-71
2023/06/13 02:46:10;;;;;;;139.80;133.40;;;;;;;30.43;22.83;101205.97;4994564;28;20042;-71
2023/06/13 02:48:36;;;;;;;136.80;130.80;;;;;;;30.39;22.54;101203.09;4995765;28;20034;-70
2023/06/13 02:51:02;;;;;;;134.23;128.35;;;;;;;30.35;22.93;101213.38;4995582;28;20034;-70
2023/06/13 02:53:28;;;;;;;139.07;133.00;;;;;;;30.32;22.85;101208.53;4994874;28;20089;-70
2023/06/13 02:55:54;;;;;;;139.77;133.48;;;;;;;30.29;22.90;101208.44;4995244;28;20038;-70
2023/06/13 02:58:20;;;;;;;139.60;133.20;;;;;;;30.25;23.22;101202.81;4995125;28;20034;-70
2023/06/13 03:00:47;;;;;;;138.68;132.07;;;;;;;30.22;23.28;101208.28;4994803;28;20050;-70
2023/06/13 03:03:12;;;;;;;135.05;128.88;;;;;;;30.19;23.30;101207.03;4995027;28;20113;-71
2023/06/13 03:05:38;;;;;;;134.40;128.02;;;;;;;30.15;23.12;101206.94;4994946;28;20042;-70
2023/06/13 03:08:04;;;;;;;131.88;126.07;;;;;;;30.13;23.31;101208.47;4995232;28;20498;-70
2023/06/13 03:10:29;;;;;;;132.55;126.65;;;;;;;30.09;23.17;101214.00;4994812;28;20482;-70
2023/06/13 03:12:55;;;;;;;134.52;128.65;;;;;;;30.05;23.10;101213.09;4995111;28;20037;-70
2023/06/13 03:15:20;;;;;;;135.52;129.32;;;;;;;30.02;23.28;101202.69;4994563;28;20035;-70
2023/06/13 03:17:46;;;;;;;135.07;129.07;;;;;;;29.97;23.35;101203.78;4994946;28;20058;-70
2023/06/13 03:20:11;;;;;;;132.75;126.80;;;;;;;29.95;23.48;101208.09;5007495;28;20037;-70
2023/06/13 03:22:37;;;;;;;134.55;128.63;;;;;;;29.92;23.29;101203.25;5004776;28;20475;-70
2023/06/13 03:25:04;;;;;;;132.30;125.45;;;;;;;29.89;23.55;101209.56;4994660;28;20061;-70
2023/06/13 03:27:31;;;;;;;132.73;125.88;;;;;;;29.85;23.72;101203.88;4994321;28;20652;-70
2023/06/13 03:29:57;;;;;;;135.32;129.18;;;;;;;29.83;23.38;101202.63;4994850;28;20061;-70
2023/06/13 03:32:22;;;;;;;133.15;127.15;;;;;;;29.79;23.69;101202.56;4994512;28;20462;-70
2023/06/13 03:34:48;;;;;;;135.93;129.93;;;;;;;29.75;23.71;101198.88;4993636;28;20034;-70
2023/06/13 03:37:14;;;;;;;130.48;124.65;;;;;;;29.72;23.76;101202.41;4994450;28;20042;-70
2023/06/13 03:39:39;;;;;;;133.15;127.20;;;;;;;29.68;23.43;101204.28;4994403;28;20117;-70
2023/06/13 03:42:05;;;;;;;133.18;127.15;;;;;;;29.65;23.70;101203.03;4994851;28;20117;-70
2023/06/13 03:44:31;;;;;;;130.15;123.97;;;;;;;29.62;23.51;101195.38;4994302;28;20478;-70
2023/06/13 03:46:57;;;;;;;132.13;126.22;;;;;;;29.60;23.61;101200.50;4993861;28;20120;-70
2023/06/13 03:49:23;;;;;;;136.27;130.18;;;;;;;29.55;23.70;101201.56;4994185;28;20034;-70
2023/06/13 03:51:49;;;;;;;134.77;128.73;;;;;;;29.53;23.56;101205.88;4994139;28;20040;-70
2023/06/13 03:54:14;;;;;;;131.60;125.60;;;;;;;29.50;23.81;101201.84;4993992;28;20026;-70
2023/06/13 03:56:40;;;;;;;130.82;125.03;;;;;;;29.46;23.61;101202.94;5009654;28;20109;-70
2023/06/13 03:59:05;;;;;;;128.30;122.40;;;;;;;29.43;24.04;101203.66;4994247;28;20489;-71
2023/06/13 04:01:30;;;;;;;132.90;126.85;;;;;;;29.39;23.89;101200.00;4993603;28;20054;-71
2023/06/13 04:03:57;;;;;;;130.70;124.85;;;;;;;29.36;23.92;101200.69;4994062;28;20463;-71
2023/06/13 04:06:23;;;;;;;130.10;124.10;;;;;;;29.33;23.61;101205.00;4993896;28;20038;-71
2023/06/13 04:08:48;;;;;;;131.30;125.20;;;;;;;29.29;24.07;101207.72;4994482;28;20052;-71
2023/06/13 04:11:14;;;;;;;130.68;124.68;;;;;;;29.26;23.88;101213.19;4993925;28;20038;-70
2023/06/13 04:13:41;;;;;;;129.27;123.07;;;;;;;29.23;23.72;101211.09;4993625;28;20410;-71
2023/06/13 04:16:06;;;;;;;131.57;125.60;;;;;;;29.21;23.70;101210.69;4993665;28;20042;-71
2023/06/13 04:18:33;;;;;;;131.88;125.78;;;;;;;29.17;23.78;101213.34;4993575;28;20441;-71
2023/06/13 04:20:59;;;;;;;132.32;126.38;;;;;;;29.14;24.09;101207.72;4993918;28;20034;-71
2023/06/13 04:23:27;;;;;;;134.20;128.07;;;;;;;29.11;24.30;101203.69;4997089;28;20087;-71
2023/06/13 04:25:53;;;;;;;127.43;121.32;;;;;;;29.07;24.14;101211.09;5012966;28;20038;-72
2023/06/13 04:28:18;;;;;;;128.70;122.97;;;;;;;29.05;24.08;101213.41;5012506;28;20105;-72
2023/06/13 04:30:46;;;;;;;127.78;122.03;;;;;;;29.00;24.64;101205.31;5011698;28;20378;-72
2023/06/13 04:33:17;;;;;;;125.63;119.43;;;;;;;28.97;24.40;101214.38;5012891;28;20034;-71
2023/06/13 04:35:46;;;;;;;128.68;122.88;;;;;;;28.94;24.28;101213.13;5011979;28;20030;-72
2023/06/13 04:38:13;;;;;;;125.72;120.07;;;;;;;28.91;24.61;101222.19;5012106;28;20025;-71
2023/06/13 04:40:39;;;;;;;126.32;120.60;;;;;;;28.88;24.44;101225.69;5012165;28;20064;-71
2023/06/13 04:43:05;;;;;;;123.63;117.97;;;;;;;28.85;24.67;101218.03;5012372;28;20375;-70
2023/06/13 04:45:31;;;;;;;126.32;120.05;;;;;;;28.82;24.48;101219.56;5027445;28;20193;-70
2023/06/13 04:48:01;;;;;;;126.28;120.20;;;;;;;28.78;24.46;101217.84;5012325;28;20053;-70
2023/06/13 04:50:27;;;;;;;124.15;118.35;;;;;;;28.76;24.32;101223.78;5011300;28;20041;-71
2023/06/13 04:52:53;;;;;;;125.10;119.40;;;;;;;28.74;24.70;101216.94;5012484;28;20025;-71
2023/06/13 04:55:21;;;;;;;121.13;115.53;;;;;;;28.71;24.55;101229.59;5011480;28;20041;-71
2023/06/13 04:57:46;;;;;;;126.07;120.53;;;;;;;28.67;24.33;101235.03;4993455;28;20039;-71
2023/06/13 05:00:15;;;;;;;121.45;115.82;;;;;;;28.65;24.49;101237.38;4998418;28;20367;-71
2023/06/13 05:02:41;;;;;;;126.22;120.43;;;;;;;28.61;24.92;101235.66;5011924;28;20026;-71
2023/06/13 05:05:07;;;;;;;123.78;118.07;;;;;;;28.58;24.68;101241.94;5012415;28;20121;-71
2023/06/13 05:07:32;;;;;;;127.13;120.47;;;;;;;28.56;24.70;101238.69;5011648;28;20465;-71
2023/06/13 05:09:57;;;;;;;124.65;119.00;;;;;;;28.53;25.04;101240.22;5012220;28;20029;-70
2023/06/13 05:12:23;;;;;;;125.90;119.90;;;;;;;28.50;24.70;101238.13;5011318;28;20045;-71
2023/06/13 05:14:49;;;;;;;123.13;117.30;;;;;;;28.48;25.09;101249.59;4992963;28;20128;-71
2023/06/13 05:17:16;;;;;;;124.47;118.47;;;;;;;28.45;24.99;101243.91;4992565;28;20121;-71
2023/06/13 05:19:41;;;;;;;123.45;117.57;;;;;;;28.43;25.00;101241.47;4992121;28;20038;-71
2023/06/13 05:22:07;;;;;;;125.13;119.43;;;;;;;28.40;25.08;101239.41;4992718;28;20057;-71
2023/06/13 05:24:33;;;;;;;128.02;122.22;;;;;;;28.39;25.13;101242.53;4992240;28;20359;-70
2023/06/13 05:26:59;;;;;;;123.63;117.93;;;;;;;28.36;25.12;101252.38;4992727;28;20034;-70
2023/06/13 05:29:25;;;;;;;121.50;115.95;;;;;;;28.33;25.16;101258.66;4992201;28;20523;-70
2023/06/13 05:31:51;;;;;;;119.85;114.35;;;;;;;28.31;25.04;101249.84;4992646;28;20026;-70
2023/06/13 05:34:16;;;;;;;118.82;113.18;;;;;;;28.30;25.47;101258.53;4992334;28;20379;-70
2023/06/13 05:36:42;;;;;;;118.75;113.32;;;;;;;28.26;25.50;101256.44;5003439;28;20036;-70
2023/06/13 05:39:08;;;;;;;119.95;114.40;;;;;;;28.24;25.36;101261.53;5011550;28;20030;-70
2023/06/13 05:41:34;;;;;;;120.97;115.22;;;;;;;28.24;25.46;101260.75;5011127;28;20394;-71
2023/06/13 05:44:00;;;;;;;118.88;113.53;;;;;;;28.22;25.23;101254.72;5011120;28;20066;-70
2023/06/13 05:46:25;;;;;;;119.55;114.10;;;;;;;28.20;25.38;101255.09;5011331;28;20065;-71
2023/06/13 05:48:50;;;;;;;120.22;114.50;;;;;;;28.20;25.59;101254.28;5011103;28;20462;-71
2023/06/13 05:51:16;;;;;;;120.97;115.43;;;;;;;28.18;25.88;101259.38;5010541;28;20524;-70
2023/06/13 05:53:41;;;;;;;121.28;115.55;;;;;;;28.18;25.55;101253.81;5012108;28;20034;-71
2023/06/13 05:56:07;;;;;;;123.07;116.35;;;;;;;28.17;26.01;101252.19;5011295;28;20034;-71
2023/06/13 05:58:32;;;;;;;119.50;114.10;;;;;;;28.15;25.85;101255.34;5011250;28;20362;-71
2023/06/13 06:01:00;;;;;;;117.45;112.05;;;;;;;28.14;25.50;101262.03;5015492;28;20378;-70
2023/06/13 06:03:25;;;;;;;125.20;119.50;;;;;;;28.13;25.56;101259.63;5015308;28;20045;-71
2023/06/13 06:05:51;;;;;;;120.72;115.13;;;;;;;28.12;26.02;101260.75;5014585;28;20029;-70
2023/06/13 06:08:16;;;;;;;119.35;114.05;;;;;;;28.12;26.30;101263.53;5015248;28;20475;-70
2023/06/13 06:10:41;;;;;;;122.50;116.90;;;;;;;28.11;26.16;101268.28;5014353;28;20034;-70
2023/06/13 06:13:07;;;;;;;121.35;115.82;;;;;;;28.11;25.93;101273.84;5015296;28;20052;-70
2023/06/13 06:15:34;;;;;;;117.50;112.10;;;;;;;28.10;25.95;101272.22;5015910;28;20025;-71
2023/06/13 06:18:00;;;;;;;117.07;111.72;;;;;;;28.11;26.15;101278.59;5014451;28;20041;-71
2023/06/13 06:20:25;;;;;;;119.53;113.05;;;;;;;28.10;26.08;101271.41;5013795;28;20041;-72
2023/06/13 06:22:51;;;;;;;121.03;115.30;;;;;;;28.10;26.31;101269.47;5015410;28;20459;-71
2023/06/13 06:25:19;;;;;;;117.13;111.82;;;;;;;28.10;26.08;101261.13;5014201;28;20041;-71
2023/06/13 06:27:46;;;;;;;;;;;;;;;28.10;26.25;101265.84;5015064;28;20073;-71
2023/06/13 06:30:11;;;;;;;114.80;109.43;;;;;;;28.10;26.39;101265.84;5014765;28;19916;-71
2023/06/13 06:32:37;;;;;;;116.05;110.80;;;;;;;28.10;26.04;101265.84;5013570;28;20030;-71
2023/06/13 06:35:03;;;;;;;117.95;112.57;;;;;;;28.11;26.41;101273.03;5014783;28;20038;-71
2023/06/13 06:37:29;;;;;;;122.00;116.20;;;;;;;28.12;26.30;101274.66;5013595;28;20402;-71
2023/06/13 06:39:54;;;;;;;118.57;113.00;;;;;;;28.12;26.30;101271.88;5028769;28;20037;-71
2023/06/13 06:42:20;;;;;;;118.35;112.85;;;;;;;28.13;26.18;101262.41;5014882;28;20477;-71
2023/06/13 06:44:45;;;;;;;121.82;116.20;;;;;;;28.12;26.27;101263.53;5013768;28;20095;-71
2023/06/13 06:47:10;;;;;;;119.32;113.72;;;;;;;28.15;26.48;101260.06;5014574;28;20116;-71
2023/06/13 06:49:36;;;;;;;117.53;112.15;;;;;;;28.16;26.31;101262.50;5013334;28;20030;-71
2023/06/13 06:52:01;;;;;;;117.47;112.20;;;;;;;28.17;26.66;101263.28;5014753;28;20070;-71
2023/06/13 06:54:27;;;;;;;117.35;111.97;;;;;;;28.18;26.70;101256.59;5013421;28;20034;-71
2023/06/13 06:56:52;;;;;;;122.20;116.55;;;;;;;28.18;26.54;101260.19;5012410;28;20068;-70
2023/06/13 06:59:18;;;;;;;117.35;112.05;;;;;;;28.20;26.29;101255.09;5015419;28;20156;-70
2023/06/13 07:01:43;;;;;;;121.38;115.32;;;;;;;28.21;26.33;101256.69;5013908;28;20044;-70
2023/06/13 07:04:08;;;;;;;118.85;113.50;;;;;;;28.23;26.62;101254.38;5013527;28;20117;-70
2023/06/13 07:06:34;;;;;;;119.13;113.38;;;;;;;28.25;26.35;101254.84;5013370;28;20445;-71
2023/06/13 07:08:59;;;;;;;122.80;116.82;;;;;;;28.29;26.55;101257.72;5014339;28;20034;-70
2023/06/13 07:11:25;;;;;;;120.75;114.55;;;;;;;28.32;26.44;101256.19;5013727;28;20033;-70
2023/06/13 07:13:51;;;;;;;121.80;115.65;;;;;;;28.36;26.69;101262.69;5013327;28;20037;-69
2023/06/13 07:16:16;;;;;;;121.03;115.43;;;;;;;28.38;26.66;101261.19;5013412;28;20053;-69
2023/06/13 07:18:42;;;;;;;125.35;119.15;;;;;;;28.42;26.83;101261.28;5013744;28;20034;-69
2023/06/13 07:21:07;;;;;;;122.78;116.78;;;;;;;28.44;27.14;101261.72;5014138;28;20414;-68
2023/06/13 07:23:32;;;;;;;125.07;119.38;;;;;;;28.47;27.00;101261.06;5013227;28;20085;-69
2023/06/13 07:25:58;;;;;;;122.75;116.82;;;;;;;28.48;26.48;101262.69;5014125;28;20030;-69
2023/06/13 07:28:24;;;;;;;122.72;116.80;;;;;;;28.49;26.74;101255.97;5013379;28;20030;-70
2023/06/13 07:30:49;;;;;;;124.45;118.80;;;;;;;28.52;26.55;101260.81;5013701;28;20534;-70
2023/06/13 07:33:15;;;;;;;122.43;116.53;;;;;;;28.55;26.98;101254.56;5012694;28;20030;-69
2023/06/13 07:35:41;;;;;;;119.03;113.63;;;;;;;28.59;27.07;101260.22;5013287;28;20034;-70
2023/06/13 07:38:06;;;;;;;125.80;120.20;;;;;;;28.62;26.89;101254.75;5013529;28;20117;-70
2023/06/13 07:40:32;;;;;;;125.80;119.93;;;;;;;28.65;26.74;101248.50;5012074;28;20155;-71
2023/06/13 07:42:57;;;;;;;123.28;117.70;;;;;;;28.68;27.09;101253.34;5013826;28;20030;-70
2023/06/13 07:45:23;;;;;;;118.95;113.25;;;;;;;28.73;27.13;101260.63;5012857;28;20034;-70
2023/06/13 07:47:48;;;;;;;124.75;119.05;;;;;;;28.77;27.21;101257.94;5012304;28;20066;-70
2023/06/13 07:50:13;;;;;;;125.80;119.90;;;;;;;28.80;26.88;101260.00;5012917;28;20125;-70
2023/06/13 07:52:40;;;;;;;127.93;122.03;;;;;;;28.84;26.92;101263.69;5012164;28;20041;-70
2023/06/13 07:55:05;;;;;;;123.15;117.45;;;;;;;28.88;26.86;101256.28;5013177;28;20180;-70
2023/06/13 07:57:31;;;;;;;123.00;117.35;;;;;;;28.92;27.19;101265.50;5013368;28;20549;-70
2023/06/13 07:59:56;;;;;;;125.13;119.22;;;;;;;28.96;26.87;101269.22;5012846;28;20573;-70
2023/06/13 08:02:23;;;;;;;127.60;121.72;;;;;;;29.01;27.27;101257.81;5012294;28;20046;-70
2023/06/13 08:04:49;;;;;;;126.60;120.60;;;;;;;29.05;26.90;101261.53;5012797;28;20029;-70
2023/06/13 08:07:14;;;;;;;133.75;127.53;;;;;;;29.10;26.83;101258.47;5013278;28;20061;-70
2023/06/13 08:09:40;;;;;;;131.48;125.03;;;;;;;29.14;27.12;101249.44;5012858;28;20351;-70
2023/06/13 08:12:06;;;;;;;131.50;125.50;;;;;;;29.20;27.24;101257.16;5012586;28;20025;-70
2023/06/13 08:14:32;;;;;;;130.00;123.53;;;;;;;29.26;26.98;101266.06;5028377;28;20496;-70
2023/06/13 08:16:57;;;;;;;129.38;123.47;;;;;;;29.30;27.37;101262.19;5012542;28;20076;-70
2023/06/13 08:19:22;;;;;;;131.90;125.75;;;;;;;29.35;27.28;101261.13;5012933;28;20030;-70
2023/06/13 08:21:48;;;;;;;132.57;126.05;;;;;;;29.41;27.37;101253.28;5011199;28;20037;-70
2023/06/13 08:24:13;;;;;;;132.68;126.55;;;;;;;29.49;26.96;101258.69;5011815;28;20497;-70
2023/06/13 08:26:39;;;;;;;131.55;125.60;;;;;;;29.55;26.90;101259.22;5013426;28;20037;-71
2023/06/13 08:29:05;;;;;;;132.85;126.72;;;;;;;29.61;26.54;101252.25;5012116;28;20501;-70
2023/06/13 08:31:32;;;;;;;134.95;128.00;;;;;;;29.67;26.23;101256.38;4993878;28;20390;-70
2023/06/13 08:33:58;;;;;;;134.43;128.43;;;;;;;29.73;26.08;101243.78;5008417;28;20562;-70
2023/06/13 08:36:25;;;;;;;137.35;130.50;;;;;;;29.80;26.13;101245.94;5008700;28;20394;-70
2023/06/13 08:38:59;;;;;;;133.60;127.32;;;;;;;29.86;25.93;101243.69;4993002;28;20398;-70
2023/06/13 08:41:25;;;;;;;133.38;127.22;;;;;;;29.92;25.41;101243.06;4993406;28;20050;-70
2023/06/13 08:43:52;;;;;;;139.35;132.65;;;;;;;29.99;25.42;101236.84;5005867;28;20454;-70
2023/06/13 08:46:18;;;;;;;136.18;129.93;;;;;;;30.05;25.54;101238.16;5012193;28;20383;-70
2023/06/13 08:48:43;;;;;;;137.85;131.25;;;;;;;30.11;25.38;101242.25;5012054;28;20037;-70
2023/06/13 08:51:13;;;;;;;139.73;133.45;;;;;;;30.18;25.12;101236.84;5012237;28;20124;-70
2023/06/13 08:53:46;;;;;;;136.18;130.00;;;;;;;30.25;24.92;101235.44;5012007;28;20034;-70
2023/06/13 08:56:11;;;;;;;139.32;133.15;;;;;;;30.31;24.67;101237.56;5012279;28;20168;-70
2023/06/13 08:58:39;;;;;;;142.43;135.43;;;;;;;30.38;24.28;101236.91;5011305;28;20108;-70
2023/06/13 09:01:06;;;;;;;141.75;135.05;;;;;;;30.44;24.68;101234.63;5012412;28;20026;-70
2023/06/13 09:03:33;;;;;;;142.30;135.80;;;;;;;30.50;25.03;101235.97;5027449;28;20487;-71
2023/06/13 09:06:00;;;;;;;144.27;137.48;;;;;;;30.57;24.81;101244.47;5011942;28;20046;-71
2023/06/13 09:08:27;;;;;;;141.02;134.10;;;;;;;30.64;24.91;101239.03;5012132;28;20036;-71
2023/06/13 09:10:53;;;;;;;143.98;137.48;;;;;;;30.71;25.37;101235.56;5011729;28;20517;-71
2023/06/13 09:13:19;;;;;;;142.52;136.00;;;;;;;30.78;25.30;101241.28;5012168;28;20026;-71
2023/06/13 09:15:45;;;;;;;146.77;140.27;;;;;;;30.85;24.88;101235.88;5011606;28;20040;-71
2023/06/13 09:18:11;;;;;;;144.55;137.95;;;;;;;30.93;24.67;101231.25;5012144;28;20462;-71
2023/06/13 09:20:36;;;;;;;148.45;141.98;;;;;;;31.01;24.64;101231.00;5012269;28;20045;-71
2023/06/13 09:23:02;;;;;;;150.63;143.35;;;;;;;31.09;24.65;101242.28;5011636;28;20038;-71
2023/06/13 09:25:31;;;;;;;144.57;137.68;;;;;;;31.16;24.98;101237.66;5011401;28;20041;-71
2023/06/13 09:27:57;;;;;;;150.57;143.70;;;;;;;31.24;24.61;101235.78;5011645;28;20118;-71
2023/06/13 09:30:22;;;;;;;143.82;137.52;;;;;;;31.32;24.77;101233.91;5011925;28;20109;-71
2023/06/13 09:32:51;;;;;;;146.30;139.40;;;;;;;31.39;24.82;101232.09;5010115;28;20038;-71
2023/06/13 09:35:17;;;;;;;146.85;140.40;;;;;;;31.47;24.90;101235.78;4992342;28;20133;-71
2023/06/13 09:37:44;;;;;;;145.73;138.57;;;;;;;31.55;24.83;101236.72;4992299;28;20061;-71
2023/06/13 09:40:10;;;;;;;144.55;137.85;;;;;;;31.63;24.42;101230.09;4992295;28;20438;-71
2023/06/13 09:42:36;;;;;;;142.70;136.45;;;;;;;31.71;24.63;101231.81;4992595;28;20034;-71
2023/06/13 09:45:08;;;;;;;150.00;143.55;;;;;;;31.79;24.66;101227.94;5001252;28;20100;-71
2023/06/13 09:47:34;;;;;;;154.40;146.93;;;;;;;31.86;24.74;101238.41;5010566;28;20462;-71
2023/06/13 09:50:00;;;;;;;147.57;141.05;;;;;;;31.94;24.69;101226.19;5011339;28;20390;-70
2023/06/13 09:52:30;;;;;;;149.68;143.00;;;;;;;32.03;24.31;101228.69;5010621;28;20087;-70
2023/06/13 09:54:56;;;;;;;153.02;146.23;;;;;;;32.11;24.37;101222.81;5026208;28;20390;-71
2023/06/13 09:57:22;;;;;;;155.02;147.93;;;;;;;32.20;23.56;101222.53;5011749;28;20037;-71
2023/06/13 09:59:50;;;;;;;157.02;149.85;;;;;;;32.26;23.83;101221.03;5009813;28;20537;-71
2023/06/13 10:02:16;;;;;;;158.75;151.07;;;;;;;32.33;24.01;101225.88;5011831;28;20026;-71
2023/06/13 10:04:42;;;;;;;159.60;152.65;;;;;;;32.42;24.18;101220.00;5010715;28;20105;-71
2023/06/13 10:07:07;;;;;;;158.00;151.10;;;;;;;32.49;24.59;101215.34;5011197;28;20530;-71
2023/06/13 10:09:33;;;;;;;159.70;152.70;;;;;;;32.57;23.90;101218.22;5011077;28;20038;-71
2023/06/13 10:12:02;;;;;;;160.73;153.55;;;;;;;32.65;23.96;101214.31;5009160;28;20038;-71
2023/06/13 10:14:33;;;;;;;162.43;155.20;;;;;;;32.74;24.64;101223.22;5011274;28;20469;-69
2023/06/13 10:17:05;;;;;;;162.52;155.55;;;;;;;32.83;23.96;101225.69;5011017;28;20026;-71
2023/06/13 10:19:33;;;;;;;166.57;159.18;;;;;;;32.91;23.94;101216.16;5011556;28;20092;-71
2023/06/13 10:22:00;;;;;;;;;;;;;;;32.99;24.10;101217.88;5010646;28;20030;-71
2023/06/13 10:24:26;;;;;;;160.57;153.70;;;;;;;33.06;23.39;101217.94;5011574;28;19913;-71
2023/06/13 10:26:56;;;;;;;164.48;156.88;;;;;;;33.13;23.50;101222.81;5010885;28;20038;-71
2023/06/13 10:29:53;;;;;;;160.88;153.88;;;;;;;33.21;23.44;101213.28;5011339;28;20087;-71
2023/06/13 10:32:36;;;;;;;162.65;154.95;;;;;;;33.31;23.51;101217.38;5011428;28;20079;-71
2023/06/13 10:35:30;;;;;;;161.90;154.80;;;;;;;33.38;23.43;101214.63;4991968;28;20033;-71
2023/06/13 10:37:57;;;;;;;166.00;158.77;;;;;;;33.46;23.10;101212.69;4991825;28;20032;-71
2023/06/13 10:40:45;;;;;;;169.95;162.07;;;;;;;33.55;23.52;101219.59;4991466;28;20046;-71
2023/06/13 10:43:38;;;;;;;168.32;160.63;;;;;;;33.63;23.37;101214.06;4991472;28;20034;-71
2023/06/13 10:46:06;;;;;;;170.68;162.88;;;;;;;33.71;23.02;101201.69;4995197;28;20121;-72
2023/06/13 10:48:49;;;;;;;166.30;158.77;;;;;;;33.79;22.32;101204.16;4995577;28;20549;-71
2023/06/13 10:51:23;;;;;;;161.68;154.60;;;;;;;33.88;22.33;101206.59;4995659;28;20514;-72
2023/06/13 10:54:08;;;;;;;164.07;156.63;;;;;;;33.96;21.90;101205.44;4994785;28;20042;-72